createdAt,value
2023-02-19T00:01:10.081Z,100699.63
2023-02-19T00:03:38.148Z,100699.33
2023-02-19T00:06:06.941Z,100695.89
2023-02-19T00:08:34.799Z,100692.84
2023-02-19T00:11:03.336Z,100687.16
2023-02-19T00:13:30.415Z,100685.00
2023-02-19T00:15:57.972Z,100691.55
2023-02-19T00:18:24.892Z,100686.23
2023-02-19T00:20:51.667Z,100683.11
2023-02-19T00:23:18.675Z,100682.73
2023-02-19T00:25:45.859Z,100667.73
2023-02-19T00:28:12.899Z,100654.86
2023-02-19T00:30:39.801Z,100648.95
2023-02-19T00:33:08.987Z,100649.65
2023-02-19T00:35:36.092Z,100649.08
2023-02-19T00:38:03.632Z,100648.08
2023-02-19T00:40:30.464Z,100653.77
2023-02-19T00:42:57.473Z,100647.78
2023-02-19T00:45:24.655Z,100646.17
2023-02-19T00:47:51.516Z,100641.70
2023-02-19T00:50:18.225Z,100644.29
2023-02-19T00:52:45.165Z,100634.44
2023-02-19T00:55:12.323Z,100627.79
2023-02-19T00:57:39.217Z,100622.35
2023-02-19T01:00:07.035Z,100614.39
2023-02-19T01:02:34.388Z,100610.15
2023-02-19T01:05:01.571Z,100605.70
2023-02-19T01:07:28.749Z,100598.42
2023-02-19T01:09:55.569Z,100598.13
2023-02-19T01:12:24.250Z,100599.92
2023-02-19T01:14:51.187Z,100598.42
2023-02-19T01:17:18.168Z,100603.26
2023-02-19T01:19:45.321Z,100606.79
2023-02-19T01:22:13.343Z,100602.88
2023-02-19T01:24:40.470Z,100603.02
2023-02-19T01:27:08.075Z,100603.84
2023-02-19T01:29:34.934Z,100616.95
2023-02-19T01:32:02.284Z,100611.17
2023-02-19T01:34:33.190Z,100626.77
2023-02-19T01:37:00.238Z,100628.89
2023-02-19T01:39:27.143Z,100630.28
2023-02-19T01:41:54.319Z,100626.33
2023-02-19T01:44:20.927Z,100625.88
2023-02-19T01:46:48.554Z,100623.98
2023-02-19T01:49:27.252Z,100623.29
2023-02-19T01:52:08.900Z,100613.69
2023-02-19T01:54:38.415Z,100605.86
2023-02-19T01:57:08.265Z,100614.74
2023-02-19T01:59:36.236Z,100608.52
2023-02-19T02:02:03.394Z,100600.74
2023-02-19T02:04:31.608Z,100591.17
2023-02-19T02:07:02.347Z,100586.29
2023-02-19T02:09:49.516Z,100580.07
2023-02-19T02:12:16.837Z,100586.34
2023-02-19T02:14:46.899Z,100582.83
2023-02-19T02:17:26.414Z,100581.46
2023-02-19T02:20:08.844Z,100577.45
2023-02-19T02:22:40.695Z,100573.06
2023-02-19T02:25:22.472Z,100573.75
2023-02-19T02:28:16.390Z,100575.63
2023-02-19T02:30:47.266Z,100567.15
2023-02-19T02:33:26.401Z,100572.48
2023-02-19T02:35:56.523Z,100576.58
2023-02-19T02:38:28.731Z,100572.36
2023-02-19T02:40:56.727Z,100570.95
2023-02-19T02:43:23.900Z,100574.68
2023-02-19T02:45:51.152Z,100578.33
2023-02-19T02:48:30.303Z,100574.61
2023-02-19T02:50:57.172Z,100575.73
2023-02-19T02:54:03.177Z,100576.82
2023-02-19T02:56:31.558Z,100571.08
2023-02-19T02:59:00.466Z,100569.94
2023-02-19T03:01:48.793Z,100563.30
2023-02-19T03:04:33.639Z,100561.59
2023-02-19T03:07:07.980Z,100560.81
2023-02-19T03:09:43.074Z,100562.30
2023-02-19T03:12:34.220Z,100556.66
2023-02-19T03:15:24.447Z,100556.58
2023-02-19T03:18:11.873Z,100557.59
2023-02-19T03:20:41.748Z,100565.21
2023-02-19T03:23:09.356Z,100561.23
2023-02-19T03:25:56.804Z,100597.83
2023-02-19T03:28:46.996Z,100616.00
2023-02-19T03:31:18.177Z,100618.45
2023-02-19T03:33:47.377Z,100617.61
2023-02-19T03:36:18.862Z,100617.66
2023-02-19T03:39:03.938Z,100622.98
2023-02-19T03:41:53.196Z,100626.13
2023-02-19T03:44:36.302Z,100627.94
2023-02-19T03:47:13.923Z,100629.39
2023-02-19T03:49:43.644Z,100631.38
2023-02-19T03:52:23.793Z,100638.48
2023-02-19T03:55:15.436Z,100641.73
2023-02-19T03:57:58.258Z,100647.58
2023-02-19T04:00:33.493Z,100657.80
2023-02-19T04:03:16.188Z,100653.20
2023-02-19T04:05:47.043Z,100661.08
2023-02-19T04:08:19.288Z,100663.08
2023-02-19T04:10:47.661Z,100667.45
2023-02-19T04:13:24.727Z,100671.69
2023-02-19T04:15:54.169Z,100679.45
2023-02-19T04:18:26.347Z,100678.63
2023-02-19T04:20:53.883Z,100686.96
2023-02-19T04:23:24.673Z,100695.48
2023-02-19T04:25:56.309Z,100704.05
2023-02-19T04:28:23.298Z,100708.17
2023-02-19T04:30:50.381Z,100709.94
2023-02-19T04:33:17.172Z,100714.39
2023-02-19T04:35:44.233Z,100717.70
2023-02-19T04:38:12.175Z,100725.77
2023-02-19T04:40:39.049Z,100732.10
2023-02-19T04:43:06.078Z,100738.15
2023-02-19T04:45:32.805Z,100745.61
2023-02-19T04:47:59.755Z,100752.61
2023-02-19T04:50:26.711Z,100753.97
2023-02-19T04:52:53.838Z,100752.39
2023-02-19T04:55:20.877Z,100756.38
2023-02-19T04:57:47.840Z,100766.39
2023-02-19T05:00:14.831Z,100777.73
2023-02-19T05:02:42.088Z,100785.02
2023-02-19T05:05:09.167Z,100790.86
2023-02-19T05:07:36.379Z,100804.55
2023-02-19T05:10:03.241Z,100812.66
2023-02-19T05:12:31.183Z,100828.42
2023-02-19T05:14:58.354Z,100830.80
2023-02-19T05:17:25.345Z,100832.30
2023-02-19T05:19:52.763Z,100843.65
2023-02-19T05:22:19.698Z,100847.16
2023-02-19T05:24:46.546Z,100846.35
2023-02-19T05:27:13.445Z,100844.80
2023-02-19T05:29:40.364Z,100845.06
2023-02-19T05:32:07.657Z,100850.18
2023-02-19T05:34:35.018Z,100854.61
2023-02-19T05:37:01.932Z,100855.89
2023-02-19T05:39:28.897Z,100858.52
2023-02-19T05:41:55.769Z,100858.65
2023-02-19T05:44:22.984Z,100867.23
2023-02-19T05:46:49.672Z,100868.74
2023-02-19T05:49:16.627Z,100872.38
2023-02-19T05:51:43.779Z,100878.45
2023-02-19T05:54:10.754Z,100881.64
2023-02-19T05:56:42.514Z,100890.13
2023-02-19T05:59:18.153Z,100897.25
2023-02-19T06:01:45.276Z,100902.05
2023-02-19T06:04:13.887Z,100909.67
2023-02-19T06:06:41.863Z,100915.11
2023-02-19T06:09:09.567Z,100926.17
2023-02-19T06:11:36.738Z,100932.63
2023-02-19T06:14:04.084Z,100945.84
2023-02-19T06:16:33.210Z,100948.08
2023-02-19T06:19:02.971Z,100955.15
2023-02-19T06:21:29.813Z,100962.41
2023-02-19T06:23:57.058Z,100975.10
2023-02-19T06:26:24.834Z,100988.98
2023-02-19T06:28:52.918Z,100992.10
2023-02-19T06:31:20.873Z,101000.67
2023-02-19T06:33:48.019Z,101008.44
2023-02-19T06:36:16.765Z,101009.48
2023-02-19T06:38:44.415Z,101013.15
2023-02-19T06:41:12.950Z,101012.23
2023-02-19T06:43:40.489Z,101019.17
2023-02-19T06:46:08.053Z,101020.84
2023-02-19T06:48:35.605Z,101026.67
2023-02-19T06:51:03.624Z,101034.61
2023-02-19T06:53:30.652Z,101044.74
2023-02-19T06:56:05.888Z,101055.92
2023-02-19T06:58:33.643Z,101064.89
2023-02-19T07:01:00.691Z,101068.02
2023-02-19T07:03:27.983Z,101077.28
2023-02-19T07:05:54.849Z,101086.20
2023-02-19T07:08:22.230Z,101091.46
2023-02-19T07:10:57.869Z,101094.77
2023-02-19T07:13:26.857Z,101102.54
2023-02-19T07:15:59.839Z,101109.86
2023-02-19T07:18:27.489Z,101119.91
2023-02-19T07:20:54.755Z,101125.11
2023-02-19T07:23:21.681Z,101127.56
2023-02-19T07:25:49.181Z,101138.05
2023-02-19T07:28:16.455Z,101149.17
2023-02-19T07:30:43.529Z,101158.25
2023-02-19T07:33:10.887Z,101162.89
2023-02-19T07:35:38.234Z,101176.30
2023-02-19T07:38:05.346Z,101191.54
2023-02-19T07:40:32.619Z,101195.38
2023-02-19T07:43:00.637Z,101200.23
2023-02-19T07:45:27.839Z,101200.17
2023-02-19T07:47:54.994Z,101202.66
2023-02-19T07:50:22.080Z,101204.09
2023-02-19T07:52:49.312Z,101202.55
2023-02-19T07:55:16.308Z,101197.75
2023-02-19T07:57:43.626Z,101201.71
2023-02-19T08:00:11.278Z,101200.11
2023-02-19T08:02:57.031Z,101202.04
2023-02-19T08:05:24.030Z,101211.70
2023-02-19T08:07:50.954Z,101213.85
2023-02-19T08:10:37.553Z,101224.00
2023-02-19T08:13:19.825Z,101227.58
2023-02-19T08:15:47.498Z,101240.13
2023-02-19T08:18:16.367Z,101245.36
2023-02-19T08:20:43.997Z,101243.70
2023-02-19T08:23:11.358Z,101250.75
2023-02-19T08:25:38.756Z,101252.59
2023-02-19T08:28:06.704Z,101253.05
2023-02-19T08:30:34.267Z,101261.40
2023-02-19T08:33:02.448Z,101264.58
2023-02-19T08:35:29.650Z,101267.80
2023-02-19T08:37:57.119Z,101278.36
2023-02-19T08:40:24.886Z,101283.09
2023-02-19T08:42:51.889Z,101283.45
2023-02-19T08:45:19.302Z,101282.48
2023-02-19T08:47:46.250Z,101283.63
2023-02-19T08:50:13.524Z,101284.48
2023-02-19T08:52:40.656Z,101280.25
2023-02-19T08:55:08.225Z,101277.61
2023-02-19T08:57:38.773Z,101283.07
2023-02-19T09:00:07.268Z,101289.86
2023-02-19T09:02:34.566Z,101302.14
2023-02-19T09:05:01.793Z,101301.52
2023-02-19T09:07:29.154Z,101301.55
2023-02-19T09:09:56.445Z,101298.41
2023-02-19T09:12:23.092Z,101298.07
2023-02-19T09:14:50.422Z,101300.83
2023-02-19T09:17:17.670Z,101316.91
2023-02-19T09:19:44.964Z,101323.20
2023-02-19T09:22:12.176Z,101329.77
2023-02-19T09:24:39.468Z,101337.92
2023-02-19T09:27:06.618Z,101336.95
2023-02-19T09:29:34.450Z,101336.48
2023-02-19T09:32:01.748Z,101345.27
2023-02-19T09:34:29.025Z,101353.74
2023-02-19T09:37:00.027Z,101349.72
2023-02-19T09:39:27.358Z,101347.20
2023-02-19T09:41:57.885Z,101352.60
2023-02-19T09:44:30.939Z,101349.36
2023-02-19T09:47:00.133Z,101346.35
2023-02-19T09:49:33.700Z,101347.41
2023-02-19T09:52:15.186Z,101353.45
2023-02-19T09:54:42.816Z,101361.48
2023-02-19T09:57:21.482Z,101374.08
2023-02-19T09:59:54.242Z,101383.24
2023-02-19T10:02:24.153Z,101393.51
2023-02-19T10:04:52.089Z,101395.39
2023-02-19T10:07:28.500Z,101398.23
2023-02-19T10:10:02.995Z,101409.02
2023-02-19T10:12:31.922Z,101420.75
2023-02-19T10:15:16.381Z,101422.16
2023-02-19T10:17:43.297Z,101429.27
2023-02-19T10:20:16.119Z,101438.27
2023-02-19T10:22:43.645Z,101436.51
2023-02-19T10:25:16.920Z,101438.88
2023-02-19T10:27:44.168Z,101446.61
2023-02-19T10:30:37.376Z,101463.20
2023-02-19T10:33:15.676Z,101468.23
2023-02-19T10:35:53.715Z,101476.45
2023-02-19T10:38:24.621Z,101474.14
2023-02-19T10:40:59.037Z,101481.00
2023-02-19T10:43:32.993Z,101490.81
2023-02-19T10:46:21.321Z,101490.64
2023-02-19T10:49:01.529Z,101497.52
2023-02-19T10:51:47.895Z,101498.23
2023-02-19T10:54:24.561Z,101500.11
2023-02-19T10:56:51.716Z,101491.23
2023-02-19T10:59:18.391Z,101486.69
2023-02-19T11:02:03.723Z,101489.05
2023-02-19T11:04:35.081Z,101492.52
2023-02-19T11:07:15.398Z,101490.70
2023-02-19T11:09:45.566Z,101492.58
2023-02-19T11:12:14.282Z,101490.96
2023-02-19T11:14:44.973Z,101492.20
2023-02-19T11:17:24.712Z,101495.80
2023-02-19T11:19:55.610Z,101505.13
2023-02-19T11:22:31.921Z,101496.98
2023-02-19T11:25:05.733Z,101503.64
2023-02-19T11:27:32.753Z,101503.33
2023-02-19T11:30:34.466Z,101503.52
2023-02-19T11:33:18.287Z,101512.89
2023-02-19T11:35:48.488Z,101518.20
2023-02-19T11:38:18.233Z,101514.79
2023-02-19T11:40:59.691Z,101506.44
2023-02-19T11:43:43.049Z,101502.05
2023-02-19T11:46:28.434Z,101504.91
2023-02-19T11:49:26.905Z,101515.44
2023-02-19T11:52:02.863Z,101517.59
2023-02-19T11:54:38.330Z,101510.58
2023-02-19T11:57:45.721Z,101511.21
2023-02-19T12:00:30.904Z,101504.79
2023-02-19T12:03:19.917Z,101501.92
2023-02-19T12:05:55.366Z,101491.00
2023-02-19T12:08:34.751Z,101500.36
2023-02-19T12:11:19.518Z,101503.45
2023-02-19T12:13:58.183Z,101496.96
2023-02-19T12:16:50.688Z,101489.05
2023-02-19T12:19:36.419Z,101495.40
2023-02-19T12:22:31.216Z,101498.92
2023-02-19T12:25:29.933Z,101501.15
2023-02-19T12:28:17.101Z,101502.54
2023-02-19T12:31:05.922Z,101501.38
2023-02-19T12:33:59.940Z,101504.73
2023-02-19T12:36:46.634Z,101514.93
2023-02-19T12:39:57.356Z,101517.67
2023-02-19T12:42:29.647Z,101523.77
2023-02-19T12:45:02.780Z,101530.14
2023-02-19T12:47:36.450Z,101527.80
2023-02-19T12:50:17.416Z,101531.16
2023-02-19T12:52:49.333Z,101538.59
2023-02-19T12:55:30.079Z,101532.70
2023-02-19T12:57:59.269Z,101535.59
2023-02-19T13:00:43.346Z,101535.23
2023-02-19T13:03:21.161Z,101530.46
2023-02-19T13:05:58.626Z,101533.04
2023-02-19T13:09:05.327Z,101534.33
2023-02-19T13:11:40.169Z,101535.14
2023-02-19T13:14:32.345Z,101535.68
2023-02-19T13:17:29.494Z,101538.64
2023-02-19T13:20:01.508Z,101541.30
2023-02-19T13:23:04.925Z,101540.13
2023-02-19T13:26:02.748Z,101541.88
2023-02-19T13:28:47.824Z,101548.52
2023-02-19T13:31:42.101Z,101552.80
2023-02-19T13:34:41.287Z,101553.63
2023-02-19T13:37:09.633Z,101549.88
2023-02-19T13:39:37.149Z,101541.50
2023-02-19T13:42:04.651Z,101543.39
2023-02-19T13:44:33.050Z,101541.68
2023-02-19T13:47:00.625Z,101531.11
2023-02-19T13:49:36.251Z,101522.94
2023-02-19T13:52:23.735Z,101514.30
2023-02-19T13:54:51.305Z,101515.41
2023-02-19T13:57:23.832Z,101511.52
2023-02-19T13:59:52.077Z,101515.23
2023-02-19T14:02:21.928Z,101518.38
2023-02-19T14:04:57.082Z,101520.50
2023-02-19T14:07:26.632Z,101521.62
2023-02-19T14:09:54.262Z,101528.02
2023-02-19T14:12:30.502Z,101524.04
2023-02-19T14:14:57.536Z,101517.48
2023-02-19T14:17:29.492Z,101520.04
2023-02-19T14:20:18.338Z,101527.67
2023-02-19T14:22:57.029Z,101534.14
2023-02-19T14:25:23.961Z,101543.48
2023-02-19T14:27:53.517Z,101542.56
2023-02-19T14:30:23.248Z,101552.57
2023-02-19T14:32:54.575Z,101557.15
2023-02-19T14:35:24.741Z,101554.48
2023-02-19T14:37:55.389Z,101552.86
2023-02-19T14:40:35.408Z,101552.35
2023-02-19T14:43:04.567Z,101555.29
2023-02-19T14:45:40.999Z,101565.48
2023-02-19T14:48:18.606Z,101574.23
2023-02-19T14:50:49.610Z,101573.52
2023-02-19T14:53:19.343Z,101565.34
2023-02-19T14:55:46.954Z,101563.84
2023-02-19T14:58:20.296Z,101565.65
2023-02-19T15:00:47.109Z,101563.95
2023-02-19T15:03:30.869Z,101560.10
2023-02-19T15:06:12.758Z,101564.19
2023-02-19T15:08:46.740Z,101561.05
2023-02-19T15:11:19.122Z,101561.91
2023-02-19T15:13:59.307Z,101558.72
2023-02-19T15:16:28.006Z,101556.39
2023-02-19T15:18:56.564Z,101555.49
2023-02-19T15:21:28.144Z,101561.73
2023-02-19T15:24:02.288Z,101551.16
2023-02-19T15:26:38.030Z,101543.88
2023-02-19T15:29:11.430Z,101546.67
2023-02-19T15:31:52.170Z,101553.73
2023-02-19T15:34:31.123Z,101552.73
2023-02-19T15:37:02.401Z,101555.50
2023-02-19T15:39:40.478Z,101556.17
2023-02-19T15:42:09.716Z,101555.63
2023-02-19T15:44:45.566Z,101555.57
2023-02-19T15:47:28.167Z,101547.30
2023-02-19T15:50:26.453Z,101552.63
2023-02-19T15:53:04.648Z,101553.39
2023-02-19T15:55:47.514Z,101548.83
2023-02-19T15:58:33.191Z,101547.98
2023-02-19T16:01:11.660Z,101544.70
2023-02-19T16:03:38.990Z,101548.27
2023-02-19T16:06:14.898Z,101548.77
2023-02-19T16:08:46.941Z,101540.20
2023-02-19T16:11:22.842Z,101539.57
2023-02-19T16:14:13.068Z,101542.26
2023-02-19T16:16:42.367Z,101547.73
2023-02-19T16:19:09.868Z,101557.31
2023-02-19T16:21:37.170Z,101561.68
2023-02-19T16:24:17.468Z,101568.85
2023-02-19T16:26:45.173Z,101576.06
2023-02-19T16:29:23.946Z,101576.11
2023-02-19T16:32:16.654Z,101577.56
2023-02-19T16:34:44.615Z,101583.66
2023-02-19T16:37:41.230Z,101586.48
2023-02-19T16:40:08.087Z,101593.65
2023-02-19T16:42:55.186Z,101594.25
2023-02-19T16:45:22.292Z,101591.85
2023-02-19T16:47:51.124Z,101587.00
2023-02-19T16:50:23.155Z,101589.84
2023-02-19T16:52:58.246Z,101597.64
2023-02-19T16:55:26.132Z,101599.09
2023-02-19T16:57:53.391Z,101600.89
2023-02-19T17:00:32.933Z,101609.70
2023-02-19T17:03:03.072Z,101622.23
2023-02-19T17:05:32.494Z,101629.77
2023-02-19T17:07:59.624Z,101638.03
2023-02-19T17:10:27.904Z,101637.11
2023-02-19T17:12:55.895Z,101634.58
2023-02-19T17:15:23.323Z,101636.16
2023-02-19T17:17:50.216Z,101641.81
2023-02-19T17:20:28.052Z,101637.41
2023-02-19T17:22:55.529Z,101633.66
2023-02-19T17:25:23.252Z,101637.40
2023-02-19T17:27:50.501Z,101634.17
2023-02-19T17:30:29.228Z,101634.88
2023-02-19T17:32:56.468Z,101635.84
2023-02-19T17:35:23.788Z,101634.66
2023-02-19T17:37:53.294Z,101629.23
2023-02-19T17:40:33.843Z,101625.69
2023-02-19T17:43:01.905Z,101626.14
2023-02-19T17:45:28.904Z,101624.58
2023-02-19T17:47:56.143Z,101624.19
2023-02-19T17:50:30.234Z,101619.52
2023-02-19T17:52:57.444Z,101619.02
2023-02-19T17:55:24.937Z,101616.90
2023-02-19T17:57:52.873Z,101617.08
2023-02-19T18:00:28.862Z,101614.23
2023-02-19T18:02:55.914Z,101612.91
2023-02-19T18:05:24.000Z,101614.02
2023-02-19T18:07:51.344Z,101619.29
2023-02-19T18:10:19.898Z,101627.60
2023-02-19T18:12:47.249Z,101629.76
2023-02-19T18:15:23.670Z,101634.52
2023-02-19T18:17:50.542Z,101637.04
2023-02-19T18:20:22.193Z,101634.95
2023-02-19T18:22:48.988Z,101631.98
2023-02-19T18:25:16.935Z,101636.85
2023-02-19T18:27:43.963Z,101645.90
2023-02-19T18:30:11.792Z,101648.90
2023-02-19T18:32:39.155Z,101645.40
2023-02-19T18:35:06.616Z,101647.34
2023-02-19T18:37:33.893Z,101648.73
2023-02-19T18:40:01.224Z,101647.30
2023-02-19T18:42:28.620Z,101649.79
2023-02-19T18:44:55.963Z,101650.33
2023-02-19T18:47:25.282Z,101654.91
2023-02-19T18:49:57.218Z,101658.06
2023-02-19T18:52:25.403Z,101656.40
2023-02-19T18:54:54.236Z,101658.53
2023-02-19T18:57:22.660Z,101659.90
2023-02-19T18:59:49.893Z,101660.88
2023-02-19T19:02:17.545Z,101662.63
2023-02-19T19:04:49.279Z,101664.20
2023-02-19T19:07:16.896Z,101673.95
2023-02-19T19:09:44.511Z,101673.58
2023-02-19T19:12:11.601Z,101674.20
2023-02-19T19:14:38.684Z,101675.07
2023-02-19T19:17:05.812Z,101671.92
2023-02-19T19:19:33.473Z,101671.29
2023-02-19T19:22:00.692Z,101666.41
2023-02-19T19:24:27.704Z,101663.20
2023-02-19T19:26:55.134Z,101659.38
2023-02-19T19:29:22.710Z,101660.18
2023-02-19T19:31:50.519Z,101659.54
2023-02-19T19:34:18.903Z,101654.91
2023-02-19T19:36:46.507Z,101653.66
2023-02-19T19:39:14.007Z,101653.99
2023-02-19T19:41:41.041Z,101661.27
2023-02-19T19:44:09.366Z,101661.19
2023-02-19T19:46:43.430Z,101662.62
2023-02-19T19:49:10.744Z,101664.37
2023-02-19T19:51:38.353Z,101668.45
2023-02-19T19:54:08.321Z,101663.75
2023-02-19T19:56:44.251Z,101662.23
2023-02-19T19:59:15.149Z,101661.55
2023-02-19T20:02:10.639Z,101652.05
2023-02-19T20:04:37.970Z,101646.35
2023-02-19T20:07:05.168Z,101638.97
2023-02-19T20:09:32.235Z,101632.85
2023-02-19T20:11:59.707Z,101632.42
2023-02-19T20:14:27.001Z,101629.02
2023-02-19T20:16:55.235Z,101622.97
2023-02-19T20:19:22.629Z,101629.05
2023-02-19T20:21:52.103Z,101630.44
2023-02-19T20:24:25.866Z,101632.06
2023-02-19T20:26:58.776Z,101641.19
2023-02-19T20:29:28.637Z,101642.27
2023-02-19T20:31:59.855Z,101641.23
2023-02-19T20:34:27.393Z,101636.96
2023-02-19T20:36:55.057Z,101634.92
2023-02-19T20:39:23.176Z,101634.18
2023-02-19T20:41:51.933Z,101640.10
2023-02-19T20:44:19.264Z,101641.97
2023-02-19T20:46:48.890Z,101642.39
2023-02-19T20:49:18.358Z,101654.10
2023-02-19T20:51:50.253Z,101654.55
2023-02-19T20:54:21.497Z,101652.58
2023-02-19T20:56:51.502Z,101647.21
2023-02-19T20:59:19.659Z,101645.82
2023-02-19T21:01:47.021Z,101645.33
2023-02-19T21:04:14.845Z,101646.67
2023-02-19T21:06:42.049Z,101640.03
2023-02-19T21:09:09.246Z,101640.00
2023-02-19T21:11:36.434Z,101639.58
2023-02-19T21:14:03.638Z,101638.68
2023-02-19T21:16:31.708Z,101636.71
2023-02-19T21:18:59.542Z,101629.48
2023-02-19T21:21:26.842Z,101629.15
2023-02-19T21:23:54.813Z,101629.43
2023-02-19T21:26:21.938Z,101627.95
2023-02-19T21:28:51.202Z,101633.45
2023-02-19T21:31:18.483Z,101628.16
2023-02-19T21:33:45.898Z,101625.30
2023-02-19T21:36:13.434Z,101621.27
2023-02-19T21:38:40.738Z,101628.33
2023-02-19T21:41:07.785Z,101629.80
2023-02-19T21:43:34.938Z,101631.98
2023-02-19T21:46:01.808Z,101636.48
2023-02-19T21:48:28.876Z,101639.20
2023-02-19T21:50:55.502Z,101637.34
2023-02-19T21:53:23.012Z,101636.51
2023-02-19T21:55:58.363Z,101628.45
2023-02-19T21:58:26.912Z,101625.09
2023-02-19T22:00:54.145Z,101626.73
2023-02-19T22:03:21.596Z,101625.23
2023-02-19T22:05:48.282Z,101622.94
2023-02-19T22:08:17.245Z,101623.35
2023-02-19T22:10:44.410Z,101621.77
2023-02-19T22:13:12.935Z,101614.91
2023-02-19T22:15:43.400Z,101615.79
2023-02-19T22:18:10.365Z,101619.61
2023-02-19T22:20:49.919Z,101621.30
2023-02-19T22:23:16.665Z,101629.55
2023-02-19T22:25:44.059Z,101634.02
2023-02-19T22:28:11.408Z,101632.75
2023-02-19T22:30:38.504Z,101627.35
2023-02-19T22:33:05.597Z,101626.14
2023-02-19T22:35:32.785Z,101619.45
2023-02-19T22:37:59.853Z,101609.02
2023-02-19T22:40:26.942Z,101603.85
2023-02-19T22:42:54.010Z,101597.92
2023-02-19T22:45:21.104Z,101600.98
2023-02-19T22:47:48.606Z,101596.74
2023-02-19T22:50:20.301Z,101601.70
2023-02-19T22:52:47.300Z,101611.17
2023-02-19T22:55:14.190Z,101616.17
2023-02-19T22:57:41.226Z,101608.21
2023-02-19T23:00:09.381Z,101602.74
2023-02-19T23:02:36.297Z,101592.70
2023-02-19T23:05:03.623Z,101588.27
2023-02-19T23:07:30.744Z,101588.05
2023-02-19T23:09:57.779Z,101582.91
2023-02-19T23:12:25.055Z,101580.48
2023-02-19T23:14:51.822Z,101577.95
2023-02-19T23:17:18.710Z,101580.34
2023-02-19T23:19:46.133Z,101577.39
2023-02-19T23:22:13.055Z,101577.75
2023-02-19T23:24:40.213Z,101579.74
2023-02-19T23:27:07.398Z,101582.58
2023-02-19T23:29:34.322Z,101579.13
2023-02-19T23:32:01.552Z,101580.61
2023-02-19T23:34:28.720Z,101577.21
2023-02-19T23:36:55.630Z,101579.11
2023-02-19T23:39:22.776Z,101576.84
2023-02-19T23:41:54.072Z,101572.59
2023-02-19T23:44:22.545Z,101568.46
2023-02-19T23:46:51.125Z,101570.88
2023-02-19T23:49:19.029Z,101573.56
2023-02-19T23:51:46.063Z,101572.08
2023-02-19T23:54:13.353Z,101570.16
2023-02-19T23:56:40.037Z,101571.39
2023-02-19T23:59:07.187Z,101572.88
